sensor_id;sensor_type;location;lat;lon;timestamp;pressure;altitude;pressure_sealevel;temperature;humidity
65546;BME280;52177;55.968;37.498;2023-09-12T00:00:02;100105.72;;;9.41;76.58
65546;BME280;52177;55.968;37.498;2023-09-12T00:00:35;100107.72;;;9.39;76.35
65546;BME280;52177;55.968;37.498;2023-09-12T00:01:06;100098.06;;;9.38;76.43
65546;BME280;52177;55.968;37.498;2023-09-12T00:01:37;100101.56;;;9.38;76.67
65546;BME280;52177;55.968;37.498;2023-09-12T00:02:07;100100.06;;;9.36;76.69
65546;BME280;52177;55.968;37.498;2023-09-12T00:02:38;100098.22;;;9.36;76.68
65546;BME280;52177;55.968;37.498;2023-09-12T00:03:08;100102.72;;;9.36;76.91
65546;BME280;52177;55.968;37.498;2023-09-12T00:03:39;100108.22;;;9.34;76.62
65546;BME280;52177;55.968;37.498;2023-09-12T00:04:09;100098.56;;;9.33;76.57
65546;BME280;52177;55.968;37.498;2023-09-12T00:04:41;100107.34;;;9.34;76.64
65546;BME280;52177;55.968;37.498;2023-09-12T00:05:11;100104.03;;;9.32;76.55
65546;BME280;52177;55.968;37.498;2023-09-12T00:05:50;100107.69;;;9.30;76.62
65546;BME280;52177;55.968;37.498;2023-09-12T00:06:21;100101.53;;;9.30;76.90
65546;BME280;52177;55.968;37.498;2023-09-12T00:06:54;100100.72;;;9.29;76.82
65546;BME280;52177;55.968;37.498;2023-09-12T00:07:24;100099.84;;;9.29;76.84
65546;BME280;52177;55.968;37.498;2023-09-12T00:07:54;100099.16;;;9.27;76.79
65546;BME280;52177;55.968;37.498;2023-09-12T00:08:25;100100.84;;;9.28;76.85
65546;BME280;52177;55.968;37.498;2023-09-12T00:08:56;100100.03;;;9.27;76.75
65546;BME280;52177;55.968;37.498;2023-09-12T00:09:26;100108.84;;;9.28;76.59
65546;BME280;52177;55.968;37.498;2023-09-12T00:09:58;100106.19;;;9.28;76.56
65546;BME280;52177;55.968;37.498;2023-09-12T00:10:28;100102.50;;;9.29;76.69
65546;BME280;52177;55.968;37.498;2023-09-12T00:11:07;100103.38;;;9.29;76.44
65546;BME280;52177;55.968;37.498;2023-09-12T00:11:41;100108.69;;;9.29;76.45
65546;BME280;52177;55.968;37.498;2023-09-12T00:12:15;100108.84;;;9.28;76.51
65546;BME280;52177;55.968;37.498;2023-09-12T00:12:45;100100.03;;;9.27;76.42
65546;BME280;52177;55.968;37.498;2023-09-12T00:13:16;100107.34;;;9.25;76.32
65546;BME280;52177;55.968;37.498;2023-09-12T00:13:46;100108.00;;;9.27;76.48
65546;BME280;52177;55.968;37.498;2023-09-12T00:14:17;100105.34;;;9.27;76.39
65546;BME280;52177;55.968;37.498;2023-09-12T00:14:48;100103.66;;;9.26;76.47
65546;BME280;52177;55.968;37.498;2023-09-12T00:15:18;100111.50;;;9.28;76.55
65546;BME280;52177;55.968;37.498;2023-09-12T00:15:49;100112.31;;;9.28;76.63
65546;BME280;52177;55.968;37.498;2023-09-12T00:16:20;100109.66;;;9.28;76.43
65546;BME280;52177;55.968;37.498;2023-09-12T00:16:50;100112.31;;;9.28;76.36
65546;BME280;52177;55.968;37.498;2023-09-12T00:17:22;100111.34;;;9.29;76.25
65546;BME280;52177;55.968;37.498;2023-09-12T00:17:53;100113.00;;;9.30;76.28
65546;BME280;52177;55.968;37.498;2023-09-12T00:18:24;100112.19;;;9.30;76.25
65546;BME280;52177;55.968;37.498;2023-09-12T00:18:54;100113.00;;;9.30;76.40
65546;BME280;52177;55.968;37.498;2023-09-12T00:19:24;100111.34;;;9.29;76.40
65546;BME280;52177;55.968;37.498;2023-09-12T00:19:55;100118.47;;;9.29;76.30
65546;BME280;52177;55.968;37.498;2023-09-12T00:20:25;100119.34;;;9.29;76.14
65546;BME280;52177;55.968;37.498;2023-09-12T00:20:55;100112.31;;;9.28;76.04
65546;BME280;52177;55.968;37.498;2023-09-12T00:21:26;100114.16;;;9.28;75.95
65546;BME280;52177;55.968;37.498;2023-09-12T00:21:57;100108.31;;;9.24;76.08
65546;BME280;52177;55.968;37.498;2023-09-12T00:22:27;100114.63;;;9.23;76.01
65546;BME280;52177;55.968;37.498;2023-09-12T00:22:58;100113.94;;;9.21;75.97
65546;BME280;52177;55.968;37.498;2023-09-12T00:23:28;100114.28;;;9.18;76.11
65546;BME280;52177;55.968;37.498;2023-09-12T00:23:59;100119.59;;;9.18;76.10
65546;BME280;52177;55.968;37.498;2023-09-12T00:24:29;100110.78;;;9.18;76.14
65546;BME280;52177;55.968;37.498;2023-09-12T00:25:00;100116.25;;;9.16;76.06
65546;BME280;52177;55.968;37.498;2023-09-12T00:25:30;100113.59;;;9.16;76.22
65546;BME280;52177;55.968;37.498;2023-09-12T00:26:01;100109.09;;;9.17;76.13
65546;BME280;52177;55.968;37.498;2023-09-12T00:26:31;100117.22;;;9.15;76.15
65546;BME280;52177;55.968;37.498;2023-09-12T00:27:03;100118.09;;;9.16;76.13
65546;BME280;52177;55.968;37.498;2023-09-12T00:27:35;100117.41;;;9.14;76.10
65546;BME280;52177;55.968;37.498;2023-09-12T00:28:05;100117.41;;;9.14;76.20
65546;BME280;52177;55.968;37.498;2023-09-12T00:28:35;100119.25;;;9.13;76.21
65546;BME280;52177;55.968;37.498;2023-09-12T00:29:07;100113.25;;;9.11;76.47
65546;BME280;52177;55.968;37.498;2023-09-12T00:29:37;100118.56;;;9.11;76.38
65546;BME280;52177;55.968;37.498;2023-09-12T00:30:08;100122.88;;;9.12;76.38
65546;BME280;52177;55.968;37.498;2023-09-12T00:30:39;100116.56;;;9.13;76.51
65546;BME280;52177;55.968;37.498;2023-09-12T00:31:09;100119.25;;;9.13;76.42
65546;BME280;52177;55.968;37.498;2023-09-12T00:31:39;100112.09;;;9.14;76.28
65546;BME280;52177;55.968;37.498;2023-09-12T00:32:10;100130.53;;;9.15;76.40
65546;BME280;52177;55.968;37.498;2023-09-12T00:32:40;100122.41;;;9.17;76.33
65546;BME280;52177;55.968;37.498;2023-09-12T00:33:11;100125.88;;;9.17;76.22
65546;BME280;52177;55.968;37.498;2023-09-12T00:33:41;100130.25;;;9.18;76.01
65546;BME280;52177;55.968;37.498;2023-09-12T00:34:16;100128.56;;;9.17;75.96
65546;BME280;52177;55.968;37.498;2023-09-12T00:34:47;100130.53;;;9.15;75.93
65546;BME280;52177;55.968;37.498;2023-09-12T00:35:17;100131.69;;;9.13;75.96
65546;BME280;52177;55.968;37.498;2023-09-12T00:35:47;100131.00;;;9.11;75.94
65546;BME280;52177;55.968;37.498;2023-09-12T00:36:18;100132.81;;;9.10;76.06
65546;BME280;52177;55.968;37.498;2023-09-12T00:36:48;100136.63;;;9.07;76.22
65546;BME280;52177;55.968;37.498;2023-09-12T00:37:19;100127.97;;;9.05;76.36
65546;BME280;52177;55.968;37.498;2023-09-12T00:37:49;100128.81;;;9.06;76.26
65546;BME280;52177;55.968;37.498;2023-09-12T00:38:19;100135.13;;;9.05;76.20
65546;BME280;52177;55.968;37.498;2023-09-12T00:38:50;100134.28;;;9.04;76.29
65546;BME280;52177;55.968;37.498;2023-09-12T00:39:20;100138.31;;;9.08;76.56
65546;BME280;52177;55.968;37.498;2023-09-12T00:39:51;100125.31;;;9.05;76.24
65546;BME280;52177;55.968;37.498;2023-09-12T00:40:21;100130.50;;;9.07;76.36
65546;BME280;52177;55.968;37.498;2023-09-12T00:40:51;100133.16;;;9.07;76.30
65546;BME280;52177;55.968;37.498;2023-09-12T00:41:22;100134.97;;;9.06;76.38
65546;BME280;52177;55.968;37.498;2023-09-12T00:41:52;100129.66;;;9.06;76.36
65546;BME280;52177;55.968;37.498;2023-09-12T00:42:25;100133.28;;;9.05;76.44
65546;BME280;52177;55.968;37.498;2023-09-12T00:42:58;100127.16;;;9.05;76.24
65546;BME280;52177;55.968;37.498;2023-09-12T00:43:29;100121.00;;;9.04;76.36
65546;BME280;52177;55.968;37.498;2023-09-12T00:43:59;100132.47;;;9.05;76.38
65546;BME280;52177;55.968;37.498;2023-09-12T00:44:29;100125.50;;;9.04;76.27
65546;BME280;52177;55.968;37.498;2023-09-12T00:45:00;100131.78;;;9.03;76.26
65546;BME280;52177;55.968;37.498;2023-09-12T00:45:30;100123.97;;;9.01;76.23
65546;BME280;52177;55.968;37.498;2023-09-12T00:46:01;100130.13;;;9.02;76.35
65546;BME280;52177;55.968;37.498;2023-09-12T00:46:31;100127.63;;;9.00;76.54
65546;BME280;52177;55.968;37.498;2023-09-12T00:47:02;100129.31;;;9.01;76.42
65546;BME280;52177;55.968;37.498;2023-09-12T00:47:33;100127.63;;;9.00;76.43
65546;BME280;52177;55.968;37.498;2023-09-12T00:48:04;100134.75;;;9.00;76.31
65546;BME280;52177;55.968;37.498;2023-09-12T00:48:37;100133.06;;;8.99;76.25
65546;BME280;52177;55.968;37.498;2023-09-12T00:49:09;100131.56;;;8.96;76.20
65546;BME280;52177;55.968;37.498;2023-09-12T00:49:40;100132.72;;;8.94;76.40
65546;BME280;52177;55.968;37.498;2023-09-12T00:50:11;100131.22;;;8.91;76.49
65546;BME280;52177;55.968;37.498;2023-09-12T00:50:43;100134.69;;;8.92;76.62
65546;BME280;52177;55.968;37.498;2023-09-12T00:51:15;100129.38;;;8.92;76.69
65546;BME280;52177;55.968;37.498;2023-09-12T00:51:47;100138.34;;;8.91;76.74
65546;BME280;52177;55.968;37.498;2023-09-12T00:52:20;100129.38;;;8.92;76.79
65546;BME280;52177;55.968;37.498;2023-09-12T00:52:53;100127.56;;;8.92;76.67
65546;BME280;52177;55.968;37.498;2023-09-12T00:53:24;100128.53;;;8.91;76.55
65546;BME280;52177;55.968;37.498;2023-09-12T00:53:55;100132.22;;;8.90;76.56
65546;BME280;52177;55.968;37.498;2023-09-12T00:54:26;100128.53;;;8.91;76.38
65546;BME280;52177;55.968;37.498;2023-09-12T00:54:56;100132.34;;;8.88;76.55
65546;BME280;52177;55.968;37.498;2023-09-12T00:55:29;100128.03;;;8.87;76.72
65546;BME280;52177;55.968;37.498;2023-09-12T00:56:01;100129.00;;;8.86;76.68
65546;BME280;52177;55.968;37.498;2023-09-12T00:56:32;100128.19;;;8.86;76.70
65546;BME280;52177;55.968;37.498;2023-09-12T00:57:02;100140.66;;;8.85;76.65
65546;BME280;52177;55.968;37.498;2023-09-12T00:57:33;100135.34;;;8.85;76.74
65546;BME280;52177;55.968;37.498;2023-09-12T00:58:04;100142.47;;;8.85;76.76
65546;BME280;52177;55.968;37.498;2023-09-12T00:58:35;100138.13;;;8.84;76.74
65546;BME280;52177;55.968;37.498;2023-09-12T00:59:05;100138.13;;;8.84;76.46
65546;BME280;52177;55.968;37.498;2023-09-12T00:59:36;100137.31;;;8.83;76.69
65546;BME280;52177;55.968;37.498;2023-09-12T01:00:07;100135.47;;;8.84;76.53
65546;BME280;52177;55.968;37.498;2023-09-12T01:00:42;100140.66;;;8.85;76.50
65546;BME280;52177;55.968;37.498;2023-09-12T01:01:13;100140.66;;;8.85;76.40
65546;BME280;52177;55.968;37.498;2023-09-12T01:01:43;100137.16;;;8.85;76.29
65546;BME280;52177;55.968;37.498;2023-09-12T01:02:14;100131.16;;;8.83;76.25
65546;BME280;52177;55.968;37.498;2023-09-12T01:02:46;100132.13;;;8.82;76.21
65546;BME280;52177;55.968;37.498;2023-09-12T01:03:16;100134.09;;;8.80;76.13
65546;BME280;52177;55.968;37.498;2023-09-12T01:03:47;100139.59;;;8.78;76.17
65546;BME280;52177;55.968;37.498;2023-09-12T01:04:17;100133.59;;;8.76;76.33
65546;BME280;52177;55.968;37.498;2023-09-12T01:04:49;100134.56;;;8.75;76.29
65546;BME280;52177;55.968;37.498;2023-09-12T01:05:20;100135.72;;;8.73;76.33
65546;BME280;52177;55.968;37.498;2023-09-12T01:05:52;100133.06;;;8.73;76.35
65546;BME280;52177;55.968;37.498;2023-09-12T01:06:24;100128.88;;;8.70;76.41
65546;BME280;52177;55.968;37.498;2023-09-12T01:06:58;100136.16;;;8.68;76.30
65546;BME280;52177;55.968;37.498;2023-09-12T01:07:29;100131.03;;;8.66;76.46
65546;BME280;52177;55.968;37.498;2023-09-12T01:07:59;100135.66;;;8.64;76.62
65546;BME280;52177;55.968;37.498;2023-09-12T01:08:31;100139.28;;;8.63;76.71
65546;BME280;52177;55.968;37.498;2023-09-12T01:09:01;100133.16;;;8.63;76.77
65546;BME280;52177;55.968;37.498;2023-09-12T01:09:32;100138.47;;;8.63;76.84
65546;BME280;52177;55.968;37.498;2023-09-12T01:10:04;100137.50;;;8.64;76.81
65546;BME280;52177;55.968;37.498;2023-09-12T01:10:35;100144.59;;;8.63;76.96
65546;BME280;52177;55.968;37.498;2023-09-12T01:11:06;100144.78;;;8.62;76.84
65546;BME280;52177;55.968;37.498;2023-09-12T01:11:37;100143.09;;;8.61;76.91
65546;BME280;52177;55.968;37.498;2023-09-12T01:12:08;100136.13;;;8.60;77.24
65546;BME280;52177;55.968;37.498;2023-09-12T01:12:38;100135.44;;;8.58;77.30
65546;BME280;52177;55.968;37.498;2023-09-12T01:13:08;100134.75;;;8.56;77.41
65546;BME280;52177;55.968;37.498;2023-09-12T01:13:39;100133.91;;;8.55;77.63
65546;BME280;52177;55.968;37.498;2023-09-12T01:14:09;100134.75;;;8.56;77.83
65546;BME280;52177;55.968;37.498;2023-09-12T01:14:40;100137.25;;;8.57;77.81
65546;BME280;52177;55.968;37.498;2023-09-12T01:15:11;100133.91;;;8.55;77.96
65546;BME280;52177;55.968;37.498;2023-09-12T01:15:44;100133.09;;;8.55;77.90
65546;BME280;52177;55.968;37.498;2023-09-12T01:16:14;100137.41;;;8.56;78.09
65546;BME280;52177;55.968;37.498;2023-09-12T01:16:45;100133.91;;;8.55;78.07
65546;BME280;52177;55.968;37.498;2023-09-12T01:17:15;100140.06;;;8.56;78.18
65546;BME280;52177;55.968;37.498;2023-09-12T01:17:46;100135.75;;;8.55;78.21
65546;BME280;52177;55.968;37.498;2023-09-12T01:18:16;100134.88;;;8.54;78.12
65546;BME280;52177;55.968;37.498;2023-09-12T01:18:47;100131.41;;;8.54;78.11
65546;BME280;52177;55.968;37.498;2023-09-12T01:19:18;100133.22;;;8.53;78.11
65546;BME280;52177;55.968;37.498;2023-09-12T01:19:49;100134.75;;;8.56;78.08
65546;BME280;52177;55.968;37.498;2023-09-12T01:20:29;100128.59;;;8.55;77.79
65546;BME280;52177;55.968;37.498;2023-09-12T01:27:41;100134.84;;;8.46;77.13
65546;BME280;52177;55.968;37.498;2023-09-12T01:28:14;100130.34;;;8.47;77.25
65546;BME280;52177;55.968;37.498;2023-09-12T01:28:47;100130.34;;;8.47;77.32
65546;BME280;52177;55.968;37.498;2023-09-12T01:29:21;100136.66;;;8.45;77.32
65546;BME280;52177;55.968;37.498;2023-09-12T01:29:57;100142.94;;;8.44;77.28
65546;BME280;52177;55.968;37.498;2023-09-12T01:30:31;100143.78;;;8.45;77.28
65546;BME280;52177;55.968;37.498;2023-09-12T01:31:03;100143.78;;;8.45;77.37
65546;BME280;52177;55.968;37.498;2023-09-12T01:31:35;100138.63;;;8.43;77.26
65546;BME280;52177;55.968;37.498;2023-09-12T01:32:08;100138.78;;;8.42;77.37
65546;BME280;52177;55.968;37.498;2023-09-12T01:32:39;100141.56;;;8.40;77.45
65546;BME280;52177;55.968;37.498;2023-09-12T01:33:11;100145.19;;;8.39;77.52
65546;BME280;52177;55.968;37.498;2023-09-12T01:33:41;100145.19;;;8.39;77.77
65546;BME280;52177;55.968;37.498;2023-09-12T01:34:12;100152.34;;;8.39;77.84
65546;BME280;52177;55.968;37.498;2023-09-12T01:34:42;100147.03;;;8.39;77.93
65546;BME280;52177;55.968;37.498;2023-09-12T01:35:13;100147.16;;;8.37;78.01
65546;BME280;52177;55.968;37.498;2023-09-12T01:35:43;100148.00;;;8.38;77.94
65546;BME280;52177;55.968;37.498;2023-09-12T01:36:14;100141.03;;;8.37;77.93
65546;BME280;52177;55.968;37.498;2023-09-12T01:36:44;100150.13;;;8.34;77.84
65546;BME280;52177;55.968;37.498;2023-09-12T01:37:14;100148.44;;;8.33;77.97
65546;BME280;52177;55.968;37.498;2023-09-12T01:37:45;100155.59;;;8.33;78.12
65546;BME280;52177;55.968;37.498;2023-09-12T01:38:15;100147.78;;;8.31;78.03
65546;BME280;52177;55.968;37.498;2023-09-12T01:38:46;100152.25;;;8.31;78.05
65546;BME280;52177;55.968;37.498;2023-09-12T01:39:16;100156.72;;;8.30;78.00
65546;BME280;52177;55.968;37.498;2023-09-12T01:39:47;100154.06;;;8.30;78.05
65546;BME280;52177;55.968;37.498;2023-09-12T01:40:27;100153.94;;;8.32;78.18
65546;BME280;52177;55.968;37.498;2023-09-12T01:40:58;100158.25;;;8.33;78.01
65546;BME280;52177;55.968;37.498;2023-09-12T01:41:31;100152.94;;;8.33;77.75
65546;BME280;52177;55.968;37.498;2023-09-12T01:42:02;100152.25;;;8.31;77.87
65546;BME280;52177;55.968;37.498;2023-09-12T01:42:39;100152.09;;;8.32;77.91
65546;BME280;52177;55.968;37.498;2023-09-12T01:43:11;100151.28;;;8.32;78.04
65546;BME280;52177;55.968;37.498;2023-09-12T01:43:43;100153.94;;;8.32;78.23
65546;BME280;52177;55.968;37.498;2023-09-12T01:44:15;100160.06;;;8.32;78.12
65546;BME280;52177;55.968;37.498;2023-09-12T01:44:47;100159.06;;;8.33;77.90
65546;BME280;52177;55.968;37.498;2023-09-12T01:45:19;100158.41;;;8.31;77.72
65546;BME280;52177;55.968;37.498;2023-09-12T01:45:52;100160.22;;;8.31;77.83
65546;BME280;52177;55.968;37.498;2023-09-12T01:46:23;100156.84;;;8.29;77.70
65546;BME280;52177;55.968;37.498;2023-09-12T01:46:58;100158.69;;;8.28;77.88
65546;BME280;52177;55.968;37.498;2023-09-12T01:47:31;100160.50;;;8.28;77.95
65546;BME280;52177;55.968;37.498;2023-09-12T01:48:05;100161.50;;;8.27;78.12
65546;BME280;52177;55.968;37.498;2023-09-12T01:48:37;100158.69;;;8.28;77.99
65546;BME280;52177;55.968;37.498;2023-09-12T01:49:09;100154.22;;;8.29;77.76
65546;BME280;52177;55.968;37.498;2023-09-12T01:49:44;100159.50;;;8.29;77.75
65546;BME280;52177;55.968;37.498;2023-09-12T01:50:16;100162.72;;;8.32;77.75
65546;BME280;52177;55.968;37.498;2023-09-12T01:50:48;100154.75;;;8.32;77.54
65546;BME280;52177;55.968;37.498;2023-09-12T01:51:19;100161.06;;;8.31;77.47
65546;BME280;52177;55.968;37.498;2023-09-12T01:51:50;100158.41;;;8.31;77.44
65546;BME280;52177;55.968;37.498;2023-09-12T01:52:22;100161.91;;;8.32;77.40
65546;BME280;52177;55.968;37.498;2023-09-12T01:52:53;100165.53;;;8.31;77.32
65546;BME280;52177;55.968;37.498;2023-09-12T01:53:25;100163.72;;;8.31;77.40
65546;BME280;52177;55.968;37.498;2023-09-12T01:53:56;100161.06;;;8.31;77.38
65546;BME280;52177;55.968;37.498;2023-09-12T01:54:28;100157.53;;;8.31;77.42
65546;BME280;52177;55.968;37.498;2023-09-12T01:54:59;100169.03;;;8.31;77.43
65546;BME280;52177;55.968;37.498;2023-09-12T01:55:29;100160.38;;;8.29;77.36
65546;BME280;52177;55.968;37.498;2023-09-12T01:56:00;100163.16;;;8.28;77.34
65546;BME280;52177;55.968;37.498;2023-09-12T01:56:31;100162.34;;;8.27;77.39
65546;BME280;52177;55.968;37.498;2023-09-12T01:57:02;100164.00;;;8.28;77.26
65546;BME280;52177;55.968;37.498;2023-09-12T01:57:33;100165.00;;;8.27;77.34
65546;BME280;52177;55.968;37.498;2023-09-12T01:58:03;100160.66;;;8.26;77.32
65546;BME280;52177;55.968;37.498;2023-09-12T01:58:34;100156.34;;;8.25;77.17
65546;BME280;52177;55.968;37.498;2023-09-12T01:59:05;100157.31;;;8.24;77.21
65546;BME280;52177;55.968;37.498;2023-09-12T01:59:36;100159.97;;;8.24;77.33
65546;BME280;52177;55.968;37.498;2023-09-12T02:00:07;100162.63;;;8.24;77.43
65546;BME280;52177;55.968;37.498;2023-09-12T02:00:40;100160.81;;;8.24;77.49
65546;BME280;52177;55.968;37.498;2023-09-12T02:01:11;100163.63;;;8.23;77.38
65546;BME280;52177;55.968;37.498;2023-09-12T02:01:41;100166.28;;;8.23;77.34
65546;BME280;52177;55.968;37.498;2023-09-12T02:02:13;100161.78;;;8.23;77.58
65546;BME280;52177;55.968;37.498;2023-09-12T02:02:44;100160.97;;;8.23;77.59
65546;BME280;52177;55.968;37.498;2023-09-12T02:03:14;100163.63;;;8.23;77.72
65546;BME280;52177;55.968;37.498;2023-09-12T02:03:45;100163.75;;;8.21;77.71
65546;BME280;52177;55.968;37.498;2023-09-12T02:04:15;100164.06;;;8.18;77.87
65546;BME280;52177;55.968;37.498;2023-09-12T02:05:32;100170.38;;;8.17;77.88
65546;BME280;52177;55.968;37.498;2023-09-12T02:06:03;100161.56;;;8.17;78.27
65546;BME280;52177;55.968;37.498;2023-09-12T02:06:34;100162.41;;;8.17;78.16
65546;BME280;52177;55.968;37.498;2023-09-12T02:07:05;100165.22;;;8.16;78.08
65546;BME280;52177;55.968;37.498;2023-09-12T02:07:38;100161.72;;;8.15;78.24
65546;BME280;52177;55.968;37.498;2023-09-12T02:08:09;100169.69;;;8.15;78.15
65546;BME280;52177;55.968;37.498;2023-09-12T02:08:39;100166.19;;;8.15;78.32
65546;BME280;52177;55.968;37.498;2023-09-12T02:09:10;100167.16;;;8.14;78.41
65546;BME280;52177;55.968;37.498;2023-09-12T02:09:40;100170.81;;;8.13;78.56
65546;BME280;52177;55.968;37.498;2023-09-12T02:10:11;100169.13;;;8.12;78.69
65546;BME280;52177;55.968;37.498;2023-09-12T02:10:41;100167.16;;;8.14;78.83
65546;BME280;52177;55.968;37.498;2023-09-12T02:11:11;100167.16;;;8.14;78.77
65546;BME280;52177;55.968;37.498;2023-09-12T02:11:42;100169.81;;;8.14;78.72
65546;BME280;52177;55.968;37.498;2023-09-12T02:12:12;100173.47;;;8.13;78.69
65546;BME280;52177;55.968;37.498;2023-09-12T02:12:43;100160.34;;;8.11;78.77
65546;BME280;52177;55.968;37.498;2023-09-12T02:13:13;100170.81;;;8.13;78.67
65546;BME280;52177;55.968;37.498;2023-09-12T02:13:44;100169.00;;;8.13;78.61
65546;BME280;52177;55.968;37.498;2023-09-12T02:14:14;100173.47;;;8.13;78.55
65546;BME280;52177;55.968;37.498;2023-09-12T02:14:44;100158.50;;;8.12;78.52
65546;BME280;52177;55.968;37.498;2023-09-12T02:15:15;100163.69;;;8.13;78.67
65546;BME280;52177;55.968;37.498;2023-09-12T02:15:45;100169.00;;;8.13;78.81
65546;BME280;52177;55.968;37.498;2023-09-12T02:16:16;100169.00;;;8.13;78.53
65546;BME280;52177;55.968;37.498;2023-09-12T02:16:46;100173.31;;;8.14;78.43
65546;BME280;52177;55.968;37.498;2023-09-12T02:17:16;100169.81;;;8.14;78.41
65546;BME280;52177;55.968;37.498;2023-09-12T02:17:47;100165.50;;;8.13;78.41
65546;BME280;52177;55.968;37.498;2023-09-12T02:18:20;100169.81;;;8.14;78.17
65546;BME280;52177;55.968;37.498;2023-09-12T02:18:51;100167.31;;;8.12;78.35
65546;BME280;52177;55.968;37.498;2023-09-12T02:19:21;100166.34;;;8.13;78.41
65546;BME280;52177;55.968;37.498;2023-09-12T02:19:51;100165.50;;;8.13;78.46
65546;BME280;52177;55.968;37.498;2023-09-12T02:20:22;100169.81;;;8.14;78.48
65546;BME280;52177;55.968;37.498;2023-09-12T02:20:52;100172.47;;;8.14;78.50
65546;BME280;52177;55.968;37.498;2023-09-12T02:21:23;100168.84;;;8.15;78.80
65546;BME280;52177;55.968;37.498;2023-09-12T02:21:53;100174.16;;;8.15;78.71
65546;BME280;52177;55.968;37.498;2023-09-12T02:22:23;100174.16;;;8.15;78.54
65546;BME280;52177;55.968;37.498;2023-09-12T02:22:54;100174.16;;;8.15;78.63
65546;BME280;52177;55.968;37.498;2023-09-12T02:23:24;100175.13;;;8.14;78.64
65546;BME280;52177;55.968;37.498;2023-09-12T02:23:55;100174.16;;;8.15;78.71
65546;BME280;52177;55.968;37.498;2023-09-12T02:24:25;100175.00;;;8.15;78.64
65546;BME280;52177;55.968;37.498;2023-09-12T02:24:55;100170.66;;;8.14;78.52
65546;BME280;52177;55.968;37.498;2023-09-12T02:25:26;100174.31;;;8.13;78.66
65546;BME280;52177;55.968;37.498;2023-09-12T02:25:56;100169.00;;;8.13;78.67
65546;BME280;52177;55.968;37.498;2023-09-12T02:26:27;100169.97;;;8.12;78.75
65546;BME280;52177;55.968;37.498;2023-09-12T02:26:57;100166.34;;;8.13;78.60
65546;BME280;52177;55.968;37.498;2023-09-12T02:27:28;100169.97;;;8.12;78.56
65546;BME280;52177;55.968;37.498;2023-09-12T02:27:58;100169.13;;;8.12;78.32
65546;BME280;52177;55.968;37.498;2023-09-12T02:28:28;100169.31;;;8.10;78.20
65546;BME280;52177;55.968;37.498;2023-09-12T02:28:59;100171.09;;;8.10;78.34
65546;BME280;52177;55.968;37.498;2023-09-12T02:29:29;100168.44;;;8.10;78.39
65546;BME280;52177;55.968;37.498;2023-09-12T02:30:01;100168.63;;;8.08;78.28
65546;BME280;52177;55.968;37.498;2023-09-12T02:30:33;100166.66;;;8.10;78.36
65546;BME280;52177;55.968;37.498;2023-09-12T02:31:03;100169.13;;;8.12;78.29
65546;BME280;52177;55.968;37.498;2023-09-12T02:31:33;100176.28;;;8.11;78.33
65546;BME280;52177;55.968;37.498;2023-09-12T02:32:04;100178.09;;;8.11;78.18
65546;BME280;52177;55.968;37.498;2023-09-12T02:32:34;100171.97;;;8.10;78.37
65546;BME280;52177;55.968;37.498;2023-09-12T02:33:05;100165.78;;;8.10;78.45
65546;BME280;52177;55.968;37.498;2023-09-12T02:33:35;100174.75;;;8.09;78.36
65546;BME280;52177;55.968;37.498;2023-09-12T02:34:06;100175.72;;;8.08;78.37
65546;BME280;52177;55.968;37.498;2023-09-12T02:34:36;100172.41;;;8.06;78.44
65546;BME280;52177;55.968;37.498;2023-09-12T02:35:06;100179.50;;;8.05;78.49
65546;BME280;52177;55.968;37.498;2023-09-12T02:35:37;100173.38;;;8.04;78.54
65546;BME280;52177;55.968;37.498;2023-09-12T02:36:07;100178.69;;;8.04;78.45
65546;BME280;52177;55.968;37.498;2023-09-12T02:36:38;100179.69;;;8.03;78.48
65546;BME280;52177;55.968;37.498;2023-09-12T02:37:08;100177.16;;;8.02;78.30
65546;BME280;52177;55.968;37.498;2023-09-12T02:37:38;100178.16;;;8.01;78.53
65546;BME280;52177;55.968;37.498;2023-09-12T02:38:09;100179.13;;;8.00;78.50
65546;BME280;52177;55.968;37.498;2023-09-12T02:38:39;100173.00;;;7.99;78.43
65546;BME280;52177;55.968;37.498;2023-09-12T02:39:10;100178.28;;;7.99;78.71
65546;BME280;52177;55.968;37.498;2023-09-12T02:39:40;100177.31;;;8.00;78.44
65546;BME280;52177;55.968;37.498;2023-09-12T02:40:11;100176.34;;;8.01;78.64
65546;BME280;52177;55.968;37.498;2023-09-12T02:40:42;100171.03;;;8.01;78.49
65546;BME280;52177;55.968;37.498;2023-09-12T02:41:12;100179.00;;;8.01;78.42
65546;BME280;52177;55.968;37.498;2023-09-12T02:41:42;100181.50;;;8.03;78.27
65546;BME280;52177;55.968;37.498;2023-09-12T02:42:13;100179.81;;;8.02;78.30
65546;BME280;52177;55.968;37.498;2023-09-12T02:42:43;100182.34;;;8.03;78.31
65546;BME280;52177;55.968;37.498;2023-09-12T02:43:13;100181.50;;;8.03;78.38
65546;BME280;52177;55.968;37.498;2023-09-12T02:43:44;100176.19;;;8.03;78.17
65546;BME280;52177;55.968;37.498;2023-09-12T02:44:14;100173.53;;;8.03;78.10
65546;BME280;52177;55.968;37.498;2023-09-12T02:44:45;100185.81;;;8.04;78.13
65546;BME280;52177;55.968;37.498;2023-09-12T02:45:15;100182.34;;;8.03;78.16
65546;BME280;52177;55.968;37.498;2023-09-12T02:45:45;100185.81;;;8.04;77.88
65546;BME280;52177;55.968;37.498;2023-09-12T02:46:16;100187.47;;;8.05;78.00
65546;BME280;52177;55.968;37.498;2023-09-12T02:46:46;100187.66;;;8.03;77.99
65546;BME280;52177;55.968;37.498;2023-09-12T02:47:18;100186.66;;;8.04;77.83
65546;BME280;52177;55.968;37.498;2023-09-12T02:47:48;100180.50;;;8.04;77.84
65546;BME280;52177;55.968;37.498;2023-09-12T02:48:19;100184.00;;;8.04;77.78
65546;BME280;52177;55.968;37.498;2023-09-12T02:48:49;100187.47;;;8.05;77.95
65546;BME280;52177;55.968;37.498;2023-09-12T02:49:20;100185.69;;;8.06;77.89
65546;BME280;52177;55.968;37.498;2023-09-12T02:49:50;100187.47;;;8.05;77.97